Time;durP1;ratioP1;P1;durP2;ratioP2;P2;SDS_P1;SDS_P2;PMS_P1;PMS_P2;Temp;Humidity;BMP_temperature;BMP_pressure;BME280_temperature;BME280_humidity;BME280_pressure;Samples;Min_cycle;Max_cycle;Signal;HPM_P1;HPM_P2
2022/10/31 00:00:46;;;;;;;;;;;17.90;74.10;;;;;;5091165;28;20349;-82
2022/10/31 00:03:12;;;;;;;;;;;17.90;74.10;;;;;;5101706;28;19916;-82
2022/10/31 00:05:42;;;;;;;;;;;17.90;74.00;;;;;;5091795;28;19919;-82
2022/10/31 00:08:08;;;;;;;;;;;17.90;74.10;;;;;;5088892;28;19973;-82
2022/10/31 00:10:33;;;;;;;;;;;17.80;74.00;;;;;;5073396;28;20365;-83
2022/10/31 00:12:59;;;;;;;;;;;17.80;74.10;;;;;;5077816;28;20798;-82
2022/10/31 00:15:24;;;;;;;;;;;17.80;74.00;;;;;;5095638;28;19986;-81
2022/10/31 00:17:50;;;;;;;;;;;17.70;74.00;;;;;;5074436;28;19917;-82
2022/10/31 00:20:16;;;;;;;;;;;17.70;74.00;;;;;;5073778;28;20364;-82
2022/10/31 00:22:41;;;;;;;;;;;17.70;74.00;;;;;;5093472;28;19912;-81
2022/10/31 00:25:07;;;;;;;;;;;17.70;74.10;;;;;;5091166;28;19980;-81
2022/10/31 00:27:32;;;;;;;;;;;17.60;74.00;;;;;;5104219;28;19916;-81
2022/10/31 00:29:58;;;;;;;;;;;17.60;74.10;;;;;;5077077;28;19946;-81
2022/10/31 00:32:24;;;;;;;;;;;17.60;74.10;;;;;;5083163;28;19969;-82
2022/10/31 00:34:50;;;;;;;;;;;17.60;74.10;;;;;;5086861;28;19946;-81
2022/10/31 00:37:15;;;;;;;;;;;17.60;74.40;;;;;;5094364;28;20364;-82
2022/10/31 00:39:45;;;;;;;;;;;17.50;74.10;;;;;;5093990;28;20384;-82
2022/10/31 00:42:10;;;;;;;;;;;17.50;74.10;;;;;;5094364;28;19919;-81
2022/10/31 00:44:36;;;;;;;;;;;17.50;74.10;;;;;;5093559;28;19912;-81
2022/10/31 00:47:01;;;;;;;;;;;17.40;74.10;;;;;;5080931;28;19916;-81
2022/10/31 00:49:27;;;;;;;;;;;17.40;74.10;;;;;;5058764;28;19938;-81
2022/10/31 00:51:54;;;;;;;;;;;17.40;74.10;;;;;;5084658;28;20645;-82
2022/10/31 00:54:20;;;;;;;;;;;17.40;74.10;;;;;;5069614;28;19931;-81
2022/10/31 00:56:45;;;;;;;;;;;17.40;74.10;;;;;;5102395;28;19912;-81
2022/10/31 00:59:11;;;;;;;;;;;17.30;74.10;;;;;;5099744;28;19924;-82
2022/10/31 01:01:37;;;;;;;;;;;17.30;74.10;;;;;;5073335;28;19912;-82
2022/10/31 01:04:03;;;;;;;;;;;17.30;74.10;;;;;;5081032;28;19974;-81
2022/10/31 01:06:28;;;;;;;;;;;17.30;74.10;;;;;;5084643;28;19916;-81
2022/10/31 01:08:56;;;;;;;;;;;17.30;74.10;;;;;;5097021;28;20006;-82
2022/10/31 01:11:22;;;;;;;;;;;17.20;74.10;;;;;;5081852;28;20424;-81
2022/10/31 01:13:49;;;;;;;;;;;17.20;74.10;;;;;;5102335;28;19924;-81
2022/10/31 01:16:16;;;;;;;;;;;17.20;74.10;;;;;;5093990;28;19958;-81
2022/10/31 01:18:42;;;;;;;;;;;17.20;74.10;;;;;;5099707;28;19908;-81
2022/10/31 01:21:09;;;;;;;;;;;17.20;74.10;;;;;;5102124;28;20409;-81
2022/10/31 01:23:35;;;;;;;;;;;17.20;74.10;;;;;;5100314;28;19916;-81
2022/10/31 01:26:08;;;;;;;;;;;17.10;74.00;;;;;;5099609;28;19964;-82
2022/10/31 01:28:35;;;;;;;;;;;17.10;74.10;;;;;;5089905;28;20425;-81
2022/10/31 01:31:02;;;;;;;;;;;17.10;74.10;;;;;;5088793;28;19912;-81
2022/10/31 01:33:28;;;;;;;;;;;17.10;74.10;;;;;;5096780;28;20010;-81
2022/10/31 01:35:53;;;;;;;;;;;17.00;74.10;;;;;;5096640;28;20058;-81
2022/10/31 01:38:19;;;;;;;;;;;17.10;74.20;;;;;;5092869;28;20293;-82
2022/10/31 01:40:44;;;;;;;;;;;17.00;74.10;;;;;;5092737;28;20356;-81
2022/10/31 01:43:12;;;;;;;;;;;17.00;74.10;;;;;;5081007;28;20349;-82
2022/10/31 01:45:38;;;;;;;;;;;17.00;74.10;;;;;;5095497;28;19919;-81
2022/10/31 01:48:04;;;;;;;;;;;17.00;74.20;;;;;;5093179;28;19917;-81
2022/10/31 01:50:35;;;;;;;;;;;17.00;74.20;;;;;;5081210;28;19947;-82
2022/10/31 01:53:01;;;;;;;;;;;16.90;74.10;;;;;;5090032;28;19955;-81
2022/10/31 01:55:33;;;;;;;;;;;16.90;74.10;;;;;;5081676;28;20438;-83
2022/10/31 01:58:01;;;;;;;;;;;16.90;74.10;;;;;;5094745;28;19951;-81
2022/10/31 02:00:27;;;;;;;;;;;16.90;74.10;;;;;;5090670;28;20011;-82
2022/10/31 02:02:55;;;;;;;;;;;16.90;74.10;;;;;;5100516;28;20008;-81
2022/10/31 02:05:23;;;;;;;;;;;16.90;74.20;;;;;;5096965;28;19970;-81
2022/10/31 02:07:55;;;;;;;;;;;16.90;74.10;;;;;;5082341;28;19931;-81
2022/10/31 02:10:27;;;;;;;;;;;16.80;74.10;;;;;;5084602;28;19916;-82
2022/10/31 02:12:54;;;;;;;;;;;16.80;74.10;;;;;;5094936;28;20426;-81
2022/10/31 02:15:20;;;;;;;;;;;16.80;74.10;;;;;;5084977;28;19916;-80
2022/10/31 02:17:47;;;;;;;;;;;16.80;74.10;;;;;;5073921;28;19916;-81
2022/10/31 02:20:23;;;;;;;;;;;16.80;74.20;;;;;;5078436;28;20398;-81
2022/10/31 02:22:58;;;;;;;;;;;16.80;74.10;;;;;;5084027;28;19978;-81
2022/10/31 02:25:43;;;;;;;;;;;16.80;74.20;;;;;;5078378;28;19912;-81
2022/10/31 02:28:27;;;;;;;;;;;16.70;74.10;;;;;;5068084;28;19912;-82
2022/10/31 02:31:04;;;;;;;;;;;16.70;74.20;;;;;;5079719;28;19959;-81
2022/10/31 02:33:33;;;;;;;;;;;16.60;74.10;;;;;;5093862;28;19920;-82
2022/10/31 02:36:07;;;;;;;;;;;16.70;74.60;;;;;;5101059;28;19920;-81
2022/10/31 02:38:51;;;;;;;;;;;16.60;74.20;;;;;;5100324;28;19912;-81
2022/10/31 02:41:45;;;;;;;;;;;16.60;74.20;;;;;;5080348;28;20007;-81
2022/10/31 02:44:31;;;;;;;;;;;16.60;74.20;;;;;;5063468;28;19911;-81
2022/10/31 02:46:58;;;;;;;;;;;16.60;74.20;;;;;;5081920;28;21445;-81
2022/10/31 02:49:32;;;;;;;;;;;16.60;74.20;;;;;;5107952;28;19915;-81
2022/10/31 02:51:58;;;;;;;;;;;16.50;74.20;;;;;;5085846;28;20443;-81
2022/10/31 02:54:25;;;;;;;;;;;16.50;74.20;;;;;;5096729;28;20011;-80
2022/10/31 02:57:03;;;;;;;;;;;16.50;74.20;;;;;;5074342;28;19918;-81
2022/10/31 02:59:30;;;;;;;;;;;16.50;74.20;;;;;;5095828;28;19916;-81
2022/10/31 03:02:03;;;;;;;;;;;16.50;74.20;;;;;;5073479;28;19912;-81
2022/10/31 03:05:08;;;;;;;;;;;16.50;74.20;;;;;;5100079;27;19979;-82
2022/10/31 03:07:34;;;;;;;;;;;16.50;74.30;;;;;;5050329;28;19950;-81
2022/10/31 03:10:04;;;;;;;;;;;16.40;74.20;;;;;;5051056;28;19955;-81
2022/10/31 03:12:41;;;;;;;;;;;16.40;74.20;;;;;;5058143;28;19932;-82
2022/10/31 03:15:22;;;;;;;;;;;16.40;74.20;;;;;;5104370;27;19913;-81
2022/10/31 03:17:54;;;;;;;;;;;16.40;74.20;;;;;;5084103;28;20261;-80
2022/10/31 03:20:26;;;;;;;;;;;16.40;74.20;;;;;;5094673;28;20035;-81
2022/10/31 03:22:52;;;;;;;;;;;16.30;74.20;;;;;;5101363;28;19934;-81
2022/10/31 03:25:18;;;;;;;;;;;16.30;74.30;;;;;;5070310;28;19920;-82
2022/10/31 03:27:44;;;;;;;;;;;16.30;74.20;;;;;;5083894;28;19916;-82
2022/10/31 03:30:12;;;;;;;;;;;16.30;74.30;;;;;;5089654;28;19913;-81
2022/10/31 03:32:55;;;;;;;;;;;16.20;74.20;;;;;;5082673;28;20368;-81
2022/10/31 03:35:23;;;;;;;;;;;16.20;74.20;;;;;;5094267;28;20403;-81
2022/10/31 03:37:50;;;;;;;;;;;16.20;74.20;;;;;;5090328;28;19912;-81
2022/10/31 03:40:18;;;;;;;;;;;16.20;74.20;;;;;;5094097;28;20280;-80
2022/10/31 03:42:48;;;;;;;;;;;16.20;74.30;;;;;;5088815;28;20360;-81
2022/10/31 03:45:24;;;;;;;;;;;16.10;74.20;;;;;;5093459;28;19912;-81
2022/10/31 03:47:52;;;;;;;;;;;16.10;74.20;;;;;;5090520;28;19918;-81
2022/10/31 03:50:18;;;;;;;;;;;16.10;74.20;;;;;;5090075;28;19923;-81
2022/10/31 03:52:51;;;;;;;;;;;16.10;74.20;;;;;;5098372;28;20033;-81
2022/10/31 03:55:18;;;;;;;;;;;16.10;74.20;;;;;;5103947;28;19918;-81
2022/10/31 03:57:49;;;;;;;;;;;16.10;74.30;;;;;;5088094;28;19934;-81
2022/10/31 04:00:15;;;;;;;;;;;16.00;74.20;;;;;;5091379;28;20082;-82
2022/10/31 04:02:50;;;;;;;;;;;16.00;74.20;;;;;;5109090;27;20452;-81
2022/10/31 04:05:17;;;;;;;;;;;16.00;74.20;;;;;;5095067;28;19920;-80
2022/10/31 04:07:46;;;;;;;;;;;15.90;74.20;;;;;;5078084;28;19921;-81
2022/10/31 04:10:13;;;;;;;;;;;15.90;74.20;;;;;;5112544;27;19916;-82
2022/10/31 04:12:43;;;;;;;;;;;15.90;74.20;;;;;;5100791;28;19920;-80
2022/10/31 04:15:16;;;;;;;;;;;15.90;74.20;;;;;;5104246;28;19918;-81
2022/10/31 04:17:43;;;;;;;;;;;15.90;74.20;;;;;;5100610;28;19912;-83
2022/10/31 04:20:09;;;;;;;;;;;15.90;74.30;;;;;;5083597;28;19942;-81
2022/10/31 04:22:35;;;;;;;;;;;15.80;74.20;;;;;;5081748;28;20426;-81
2022/10/31 04:25:00;;;;;;;;;;;15.80;74.20;;;;;;5082251;28;19912;-81
2022/10/31 04:27:27;;;;;;;;;;;15.80;74.20;;;;;;5084340;28;20295;-81
2022/10/31 04:29:52;;;;;;;;;;;15.70;74.20;;;;;;5097846;28;19916;-81
2022/10/31 04:32:18;;;;;;;;;;;15.70;74.20;;;;;;5101218;28;20019;-81
2022/10/31 04:34:43;;;;;;;;;;;15.70;74.20;;;;;;5086428;28;19924;-80
2022/10/31 04:37:10;;;;;;;;;;;15.70;74.20;;;;;;5085405;28;19920;-81
2022/10/31 04:39:35;;;;;;;;;;;15.70;74.20;;;;;;5105446;28;19940;-81
2022/10/31 04:42:21;;;;;;;;;;;15.70;74.20;;;;;;5081347;28;19920;-81
2022/10/31 04:44:47;;;;;;;;;;;15.60;74.20;;;;;;5076307;28;20292;-81
2022/10/31 04:47:13;;;;;;;;;;;15.60;74.20;;;;;;5099981;28;19912;-81
2022/10/31 04:49:39;;;;;;;;;;;15.60;74.20;;;;;;5102926;28;19927;-81
2022/10/31 04:52:05;;;;;;;;;;;15.60;74.20;;;;;;5095609;28;20026;-81
2022/10/31 04:54:30;;;;;;;;;;;15.60;74.20;;;;;;5072402;28;19927;-81
2022/10/31 04:57:15;;;;;;;;;;;15.50;74.20;;;;;;5093820;28;19923;-80
2022/10/31 04:59:42;;;;;;;;;;;15.50;74.20;;;;;;5079144;28;19969;-81
2022/10/31 05:02:08;;;;;;;;;;;15.50;74.20;;;;;;5076594;28;20010;-81
2022/10/31 05:04:43;;;;;;;;;;;15.50;74.20;;;;;;5090816;28;20361;-81
2022/10/31 05:07:09;;;;;;;;;;;15.50;74.20;;;;;;5094407;28;19916;-80
2022/10/31 05:09:34;;;;;;;;;;;15.40;74.20;;;;;;5071373;28;19916;-82
2022/10/31 05:12:00;;;;;;;;;;;15.40;74.20;;;;;;5085272;28;19924;-81
2022/10/31 05:14:44;;;;;;;;;;;15.40;74.20;;;;;;5111106;27;19985;-81
2022/10/31 05:17:28;;;;;;;;;;;15.40;74.20;;;;;;5090962;28;19931;-81
2022/10/31 05:20:13;;;;;;;;;;;15.30;74.20;;;;;;5076955;28;19958;-84
2022/10/31 05:23:01;;;;;;;;;;;15.30;74.20;;;;;;5100803;28;19966;-81
2022/10/31 05:25:28;;;;;;;;;;;15.30;74.20;;;;;;5095186;28;19917;-81
2022/10/31 05:27:54;;;;;;;;;;;15.30;74.30;;;;;;5093137;28;20348;-81
2022/10/31 05:30:22;;;;;;;;;;;15.30;74.30;;;;;;5080300;28;19928;-82
2022/10/31 05:32:48;;;;;;;;;;;15.30;74.30;;;;;;5107595;27;19924;-80
2022/10/31 05:35:37;;;;;;;;;;;15.20;74.20;;;;;;5062460;28;20404;-81
2022/10/31 05:38:23;;;;;;;;;;;15.20;74.20;;;;;;5082268;28;19916;-81
2022/10/31 05:40:48;;;;;;;;;;;15.20;74.20;;;;;;5078900;28;19997;-81
2022/10/31 05:43:14;;;;;;;;;;;15.20;74.30;;;;;;5071807;28;19916;-81
2022/10/31 05:45:41;;;;;;;;;;;15.20;74.30;;;;;;5095623;28;19912;-81
2022/10/31 05:48:15;;;;;;;;;;;15.20;74.30;;;;;;5060288;28;19920;-80
2022/10/31 05:51:04;;;;;;;;;;;15.10;74.30;;;;;;5072109;28;20015;-80
2022/10/31 05:53:29;;;;;;;;;;;15.10;74.30;;;;;;5089514;28;20019;-80
2022/10/31 05:55:55;;;;;;;;;;;15.10;74.30;;;;;;5094552;28;19917;-80
2022/10/31 05:58:21;;;;;;;;;;;15.10;74.30;;;;;;5088300;28;19916;-80
2022/10/31 06:01:00;;;;;;;;;;;15.10;74.30;;;;;;5084156;28;19920;-79
2022/10/31 06:03:26;;;;;;;;;;;15.10;74.30;;;;;;5099139;28;20007;-80
2022/10/31 06:05:55;;;;;;;;;;;15.00;74.30;;;;;;5088639;28;19961;-80
2022/10/31 06:08:22;;;;;;;;;;;15.00;74.30;;;;;;5094187;28;20261;-80
2022/10/31 06:10:48;;;;;;;;;;;15.00;74.30;;;;;;5073668;28;19925;-81
2022/10/31 06:13:19;;;;;;;;;;;15.00;74.40;;;;;;5076545;28;20598;-82
2022/10/31 06:15:55;;;;;;;;;;;15.00;74.40;;;;;;5104042;28;20156;-81
2022/10/31 06:18:25;;;;;;;;;;;14.90;74.30;;;;;;5097470;28;19922;-80
2022/10/31 06:20:53;;;;;;;;;;;15.00;74.40;;;;;;5097077;28;19920;-78
2022/10/31 06:23:19;;;;;;;;;;;15.00;74.40;;;;;;5076859;28;19922;-79
2022/10/31 06:25:49;;;;;;;;;;;15.00;74.40;;;;;;5099816;28;20015;-80
2022/10/31 06:28:15;;;;;;;;;;;15.00;74.40;;;;;;5096585;28;20372;-77
2022/10/31 06:30:54;;;;;;;;;;;14.90;74.30;;;;;;5086836;28;20324;-79
2022/10/31 06:33:20;;;;;;;;;;;14.90;74.30;;;;;;5070747;28;19924;-81
2022/10/31 06:36:04;;;;;;;;;;;14.90;74.30;;;;;;5097976;28;19924;-81
2022/10/31 06:38:30;;;;;;;;;;;14.90;74.40;;;;;;5088462;28;19924;-79
2022/10/31 06:40:57;;;;;;;;;;;14.90;74.40;;;;;;5087212;28;19924;-78
2022/10/31 06:43:25;;;;;;;;;;;14.90;74.40;;;;;;5090316;28;19912;-79
2022/10/31 06:46:08;;;;;;;;;;;14.80;74.40;;;;;;5087822;28;19916;-78
2022/10/31 06:48:41;;;;;;;;;;;14.80;74.40;;;;;;5078074;28;20280;-79
2022/10/31 06:51:31;;;;;;;;;;;14.80;74.30;;;;;;5085622;28;19933;-80
2022/10/31 06:53:58;;;;;;;;;;;14.80;74.40;;;;;;5089704;28;19920;-80
2022/10/31 06:56:25;;;;;;;;;;;14.80;74.40;;;;;;5094253;28;19912;-79
2022/10/31 06:58:54;;;;;;;;;;;14.80;74.40;;;;;;5085911;28;19922;-78
2022/10/31 07:01:34;;;;;;;;;;;14.80;74.40;;;;;;5100441;28;19981;-78
2022/10/31 07:04:00;;;;;;;;;;;14.80;74.40;;;;;;5079961;28;19916;-79
2022/10/31 07:06:26;;;;;;;;;;;14.80;74.50;;;;;;5060379;28;19935;-80
2022/10/31 07:08:53;;;;;;;;;;;14.70;74.40;;;;;;5090879;28;20283;-79
2022/10/31 07:11:18;;;;;;;;;;;14.70;74.40;;;;;;5094214;28;19916;-78
2022/10/31 07:13:44;;;;;;;;;;;14.70;74.40;;;;;;5090711;28;19920;-79
2022/10/31 07:16:12;;;;;;;;;;;14.70;74.40;;;;;;5082982;28;19924;-80
2022/10/31 07:18:39;;;;;;;;;;;14.70;74.50;;;;;;5073790;28;20460;-79
2022/10/31 07:21:05;;;;;;;;;;;14.70;74.50;;;;;;5079452;28;20253;-79
2022/10/31 07:23:31;;;;;;;;;;;14.70;74.50;;;;;;5104722;28;19930;-81
2022/10/31 07:26:19;;;;;;;;;;;14.70;74.50;;;;;;5066918;28;19912;-80
2022/10/31 07:28:47;;;;;;;;;;;14.60;74.50;;;;;;5103709;28;19924;-79
2022/10/31 07:31:14;;;;;;;;;;;14.60;74.50;;;;;;5084718;28;19916;-80
2022/10/31 07:33:39;;;;;;;;;;;14.60;74.50;;;;;;5096463;28;19920;-79
2022/10/31 07:36:24;;;;;;;;;;;14.60;74.50;;;;;;5081548;28;19930;-80
2022/10/31 07:38:51;;;;;;;;;;;14.60;74.50;;;;;;5086061;28;19925;-79
2022/10/31 07:41:17;;;;;;;;;;;14.60;74.50;;;;;;5100822;28;19912;-79
2022/10/31 07:43:44;;;;;;;;;;;14.60;74.50;;;;;;5087382;28;20271;-79
2022/10/31 07:46:13;;;;;;;;;;;14.60;74.60;;;;;;5096197;28;19916;-79
2022/10/31 07:49:14;;;;;;;;;;;14.60;74.60;;;;;;5040971;28;20349;-78
2022/10/31 07:52:12;;;;;;;;;;;14.60;74.60;;;;;;5056023;28;19928;-77
2022/10/31 07:54:56;;;;;;;;;;;14.60;74.60;;;;;;5093063;28;19919;-80
2022/10/31 07:57:23;;;;;;;;;;;14.60;74.60;;;;;;5072145;28;20437;-80
2022/10/31 07:59:48;;;;;;;;;;;14.60;74.70;;;;;;5091188;28;20007;-79
2022/10/31 08:02:16;;;;;;;;;;;14.60;74.70;;;;;;5074253;28;20322;-80
2022/10/31 08:04:42;;;;;;;;;;;14.50;74.60;;;;;;5103115;28;19913;-80
2022/10/31 08:07:46;;;;;;;;;;;14.60;74.70;;;;;;5054943;28;19917;-79
2022/10/31 08:10:17;;;;;;;;;;;14.60;74.70;;;;;;5034148;28;19927;-79
2022/10/31 08:12:43;;;;;;;;;;;14.60;74.70;;;;;;5081587;28;20014;-78
2022/10/31 08:15:08;;;;;;;;;;;14.60;74.80;;;;;;5074313;28;19912;-79
2022/10/31 08:17:35;;;;;;;;;;;14.60;74.80;;;;;;5078942;28;20285;-79
2022/10/31 08:20:01;;;;;;;;;;;14.60;74.80;;;;;;5104558;28;19922;-79
2022/10/31 08:22:31;;;;;;;;;;;14.60;74.80;;;;;;5099720;28;20002;-80
2022/10/31 08:24:58;;;;;;;;;;;14.60;74.80;;;;;;5091414;28;19916;-80
2022/10/31 08:27:23;;;;;;;;;;;14.60;74.80;;;;;;5072051;28;19912;-79
2022/10/31 08:29:49;;;;;;;;;;;14.60;74.80;;;;;;5093052;28;19922;-79
2022/10/31 08:32:15;;;;;;;;;;;14.70;74.90;;;;;;5092775;28;20331;-79
2022/10/31 08:35:13;;;;;;;;;;;14.70;74.90;;;;;;5040650;28;19970;-79
2022/10/31 08:37:58;;;;;;;;;;;14.60;74.80;;;;;;5105697;28;19929;-79
2022/10/31 08:40:26;;;;;;;;;;;14.60;74.80;;;;;;5098065;28;20370;-80
2022/10/31 08:43:02;;;;;;;;;;;14.70;74.90;;;;;;5078437;28;20031;-79
2022/10/31 08:45:29;;;;;;;;;;;14.70;74.90;;;;;;5078444;28;19965;-79
2022/10/31 08:47:58;;;;;;;;;;;14.70;75.00;;;;;;5107661;28;19916;-81
2022/10/31 08:50:25;;;;;;;;;;;14.70;74.90;;;;;;5098431;28;20377;-79
2022/10/31 08:52:50;;;;;;;;;;;14.70;74.90;;;;;;5095444;28;19923;-79
2022/10/31 08:55:16;;;;;;;;;;;14.80;74.90;;;;;;5107078;28;19970;-79
2022/10/31 08:58:01;;;;;;;;;;;14.80;75.00;;;;;;5088019;28;20687;-80
2022/10/31 09:00:36;;;;;;;;;;;14.80;74.90;;;;;;5093505;28;20023;-80
2022/10/31 09:03:17;;;;;;;;;;;14.80;74.90;;;;;;5104252;28;21356;-80
2022/10/31 09:05:43;;;;;;;;;;;14.90;75.00;;;;;;5094895;28;19912;-79
2022/10/31 09:08:11;;;;;;;;;;;14.90;75.00;;;;;;5088225;28;19923;-80
2022/10/31 09:10:37;;;;;;;;;;;14.90;74.90;;;;;;5099821;28;19916;-80
2022/10/31 09:13:13;;;;;;;;;;;14.90;74.90;;;;;;5089288;28;19970;-80
2022/10/31 09:16:00;;;;;;;;;;;14.90;74.90;;;;;;5108719;27;20040;-78
2022/10/31 09:18:29;;;;;;;;;;;15.00;75.00;;;;;;5099689;28;19912;-79
2022/10/31 09:20:58;;;;;;;;;;;15.00;74.90;;;;;;5107990;28;20348;-79
2022/10/31 09:23:26;;;;;;;;;;;15.00;74.90;;;;;;5103397;28;19912;-79
2022/10/31 09:25:52;;;;;;;;;;;15.10;75.00;;;;;;5093971;28;20365;-79
2022/10/31 09:28:44;;;;;;;;;;;15.10;75.00;;;;;;5082903;28;20357;-80
2022/10/31 09:31:12;;;;;;;;;;;15.10;75.00;;;;;;5083334;28;20351;-80
2022/10/31 09:33:52;;;;;;;;;;;15.20;75.00;;;;;;5103553;28;19975;-80
2022/10/31 09:36:47;;;;;;;;;;;15.20;75.00;;;;;;5086110;28;19947;-79
2022/10/31 09:39:17;;;;;;;;;;;15.20;75.00;;;;;;5082462;28;20018;-79
2022/10/31 09:41:53;;;;;;;;;;;15.20;74.90;;;;;;5105605;28;19916;-80
2022/10/31 09:44:22;;;;;;;;;;;15.30;74.90;;;;;;5085896;28;19916;-79
2022/10/31 09:46:56;;;;;;;;;;;15.30;74.90;;;;;;5081383;28;19920;-78
2022/10/31 09:49:27;;;;;;;;;;;15.30;74.90;;;;;;5115842;27;20332;-79
2022/10/31 09:52:00;;;;;;;;;;;15.40;75.00;;;;;;5087169;28;20023;-80
2022/10/31 09:54:36;;;;;;;;;;;15.40;75.00;;;;;;5109974;27;19916;-80
2022/10/31 09:57:02;;;;;;;;;;;15.40;75.00;;;;;;5094334;28;20360;-80
2022/10/31 09:59:34;;;;;;;;;;;15.50;75.00;;;;;;5088601;28;19915;-79
2022/10/31 10:01:59;;;;;;;;;;;15.50;75.00;;;;;;5100857;28;19922;-81
2022/10/31 10:04:37;;;;;;;;;;;15.50;75.00;;;;;;5088193;28;19908;-81
2022/10/31 10:07:30;;;;;;;;;;;15.60;75.10;;;;;;5078827;28;19912;-80
2022/10/31 10:09:56;;;;;;;;;;;15.60;75.10;;;;;;5095470;28;19916;-80
2022/10/31 10:13:00;;;;;;;;;;;15.60;75.00;;;;;;5095550;28;19924;-80
2022/10/31 10:15:32;;;;;;;;;;;15.70;75.10;;;;;;5091269;28;19919;-80
2022/10/31 10:18:06;;;;;;;;;;;15.70;75.10;;;;;;5096237;28;19923;-81
2022/10/31 10:20:50;;;;;;;;;;;15.80;75.10;;;;;;5076576;28;19918;-81
2022/10/31 10:23:31;;;;;;;;;;;15.80;75.10;;;;;;5103225;28;20237;-80
2022/10/31 10:26:26;;;;;;;;;;;15.80;75.10;;;;;;5079396;28;19978;-79
2022/10/31 10:28:56;;;;;;;;;;;15.80;75.20;;;;;;5080985;28;19962;-80
2022/10/31 10:31:27;;;;;;;;;;;15.90;75.80;;;;;;5097593;28;19922;-81
2022/10/31 10:33:53;;;;;;;;;;;15.90;75.10;;;;;;5084544;28;20014;-83
2022/10/31 10:36:21;;;;;;;;;;;15.90;75.10;;;;;;5085073;28;20006;-82
2022/10/31 10:39:09;;;;;;;;;;;16.00;75.20;;;;;;5080767;28;20406;-82
2022/10/31 10:41:36;;;;;;;;;;;16.00;75.20;;;;;;5092029;28;19920;-83
2022/10/31 10:44:05;;;;;;;;;;;16.00;75.10;;;;;;5082115;28;19908;-82
2022/10/31 10:49:23;;;;;;;;;;;16.10;75.20;;;;;;5089390;28;19943;-82
2022/10/31 10:52:07;;;;;;;;;;;16.10;75.20;;;;;;5078653;28;19924;-82
2022/10/31 10:54:38;;;;;;;;;;;16.20;75.20;;;;;;5085897;28;19916;-82
2022/10/31 10:57:19;;;;;;;;;;;16.20;75.20;;;;;;5104823;28;19912;-81
2022/10/31 10:59:45;;;;;;;;;;;16.20;75.20;;;;;;5103441;28;20269;-82
2022/10/31 11:02:19;;;;;;;;;;;16.20;75.20;;;;;;5089013;28;19930;-81
2022/10/31 11:04:48;;;;;;;;;;;16.30;75.20;;;;;;5084219;28;19913;-82
2022/10/31 11:07:14;;;;;;;;;;;16.30;75.20;;;;;;5102986;28;19983;-81
2022/10/31 11:09:39;;;;;;;;;;;16.40;75.20;;;;;;5091782;28;19920;-82
2022/10/31 11:12:22;;;;;;;;;;;16.40;75.20;;;;;;5055110;28;19916;-83
2022/10/31 11:14:50;;;;;;;;;;;16.40;75.20;;;;;;5083885;28;19916;-83
2022/10/31 11:17:36;;;;;;;;;;;16.40;75.20;;;;;;5104998;28;19951;-83
2022/10/31 11:20:11;;;;;;;;;;;16.40;75.20;;;;;;5087924;28;19916;-82
2022/10/31 11:22:37;;;;;;;;;;;16.50;75.20;;;;;;5091452;28;19920;-83
2022/10/31 11:25:19;;;;;;;;;;;16.60;75.20;;;;;;5091085;28;19912;-84
2022/10/31 11:27:45;;;;;;;;;;;16.60;75.20;;;;;;5093716;28;20299;-83
2022/10/31 11:30:12;;;;;;;;;;;16.60;75.10;;;;;;5104449;28;19915;-83
2022/10/31 11:32:48;;;;;;;;;;;16.60;75.10;;;;;;5076676;28;19922;-83
2022/10/31 11:35:18;;;;;;;;;;;16.70;75.10;;;;;;5104617;28;19908;-81
2022/10/31 11:37:44;;;;;;;;;;;16.70;75.10;;;;;;5072244;28;19981;-82
2022/10/31 11:40:24;;;;;;;;;;;16.70;75.10;;;;;;5074120;28;20007;-83
2022/10/31 11:42:51;;;;;;;;;;;16.80;75.10;;;;;;5086977;28;19966;-83
2022/10/31 11:45:17;;;;;;;;;;;16.80;75.10;;;;;;5087102;28;19915;-82
2022/10/31 11:47:54;;;;;;;;;;;16.80;75.00;;;;;;5099351;28;19920;-83
2022/10/31 11:50:34;;;;;;;;;;;16.80;75.00;;;;;;5083611;28;19920;-83
2022/10/31 11:53:00;;;;;;;;;;;16.90;75.10;;;;;;5089523;28;20015;-83
2022/10/31 11:55:30;;;;;;;;;;;16.90;75.10;;;;;;5083650;28;19909;-82
2022/10/31 11:57:57;;;;;;;;;;;16.90;75.00;;;;;;5089993;28;19920;-83
2022/10/31 12:00:22;;;;;;;;;;;16.90;75.00;;;;;;5090870;28;19930;-83
2022/10/31 12:02:48;;;;;;;;;;;17.00;75.00;;;;;;5097731;28;19916;-85
2022/10/31 12:05:19;;;;;;;;;;;17.00;75.00;;;;;;5087069;28;19908;-84
2022/10/31 12:07:45;;;;;;;;;;;17.00;75.00;;;;;;5097294;28;19962;-84
2022/10/31 12:10:12;;;;;;;;;;;17.10;75.00;;;;;;5089839;28;20440;-85
2022/10/31 12:12:43;;;;;;;;;;;17.10;75.00;;;;;;5071321;28;19960;-84
2022/10/31 12:15:21;;;;;;;;;;;17.10;74.90;;;;;;5089113;28;19912;-84
2022/10/31 12:17:53;;;;;;;;;;;17.20;75.00;;;;;;5089516;28;19919;-84
2022/10/31 12:20:18;;;;;;;;;;;17.20;74.90;;;;;;5089436;28;19955;-85
2022/10/31 12:22:52;;;;;;;;;;;17.20;74.90;;;;;;5130554;27;19920;-84
2022/10/31 12:25:33;;;;;;;;;;;17.30;75.00;;;;;;5091114;28;19915;-84
2022/10/31 12:28:25;;;;;;;;;;;17.30;74.90;;;;;;5099799;28;19913;-85
2022/10/31 12:30:56;;;;;;;;;;;17.30;75.00;;;;;;5079957;28;19924;-85
2022/10/31 12:33:39;;;;;;;;;;;17.40;75.00;;;;;;5096098;28;19967;-83
2022/10/31 12:36:08;;;;;;;;;;;17.40;74.90;;;;;;5091630;28;19920;-84
2022/10/31 12:38:44;;;;;;;;;;;17.40;74.90;;;;;;5092963;28;19912;-83
2022/10/31 12:41:19;;;;;;;;;;;17.50;74.90;;;;;;5098646;28;19916;-85
2022/10/31 12:43:51;;;;;;;;;;;17.50;74.90;;;;;;5092725;28;19927;-85
2022/10/31 12:46:35;;;;;;;;;;;17.50;74.90;;;;;;5092686;28;19947;-82
2022/10/31 12:49:10;;;;;;;;;;;17.60;74.90;;;;;;5101502;28;19916;-84
2022/10/31 12:51:42;;;;;;;;;;;17.60;74.90;;;;;;5086752;28;20006;-85
2022/10/31 12:54:07;;;;;;;;;;;17.60;75.50;;;;;;5089717;28;19916;-85
2022/10/31 12:56:56;;;;;;;;;;;17.70;74.90;;;;;;5104375;28;19912;-83
2022/10/31 12:59:29;;;;;;;;;;;17.70;74.90;;;;;;5090337;28;20415;-81
2022/10/31 13:01:59;;;;;;;;;;;17.70;74.80;;;;;;5088739;28;19915;-81
2022/10/31 13:04:33;;;;;;;;;;;17.70;74.80;;;;;;5104255;28;19915;-81
2022/10/31 13:07:01;;;;;;;;;;;17.80;74.90;;;;;;5084125;28;19916;-81
2022/10/31 13:09:31;;;;;;;;;;;17.80;74.80;;;;;;5090070;28;19908;-82
2022/10/31 13:12:01;;;;;;;;;;;17.80;74.80;;;;;;5097515;28;19981;-81
2022/10/31 13:14:29;;;;;;;;;;;17.80;74.80;;;;;;5094380;28;20390;-82
2022/10/31 13:16:56;;;;;;;;;;;17.90;74.80;;;;;;5102372;28;19920;-82
2022/10/31 13:19:21;;;;;;;;;;;17.90;74.80;;;;;;5102411;28;19908;-82
2022/10/31 13:21:47;;;;;;;;;;;18.00;74.80;;;;;;5108536;28;20266;-81
2022/10/31 13:24:15;;;;;;;;;;;18.00;74.80;;;;;;5101840;28;19915;-80
2022/10/31 13:26:43;;;;;;;;;;;18.00;74.70;;;;;;5101244;28;19916;-82
2022/10/31 13:29:14;;;;;;;;;;;18.00;74.70;;;;;;5103346;28;19939;-81
2022/10/31 13:31:41;;;;;;;;;;;18.10;74.70;;;;;;5101388;28;19919;-81
2022/10/31 13:34:28;;;;;;;;;;;18.10;74.70;;;;;;5108710;27;19961;-82
2022/10/31 13:36:57;;;;;;;;;;;18.10;74.70;;;;;;5083969;28;19927;-81
2022/10/31 13:39:31;;;;;;;;;;;18.20;74.70;;;;;;5117667;27;19957;-82
2022/10/31 13:42:19;;;;;;;;;;;18.20;74.70;;;;;;5103547;28;19919;-81
2022/10/31 13:44:44;;;;;;;;;;;18.20;74.60;;;;;;5102773;28;19973;-82
2022/10/31 13:47:25;;;;;;;;;;;18.20;74.60;;;;;;5086333;28;20380;-81
2022/10/31 13:49:50;;;;;;;;;;;18.20;74.60;;;;;;5097336;28;19916;-81
2022/10/31 13:52:23;;;;;;;;;;;18.30;74.60;;;;;;5095196;28;19923;-82
2022/10/31 13:54:55;;;;;;;;;;;18.30;74.60;;;;;;5071217;28;19986;-82
2022/10/31 13:57:37;;;;;;;;;;;18.30;74.60;;;;;;5093755;28;19942;-82
2022/10/31 14:00:34;;;;;;;;;;;18.40;74.60;;;;;;5092446;28;20345;-82
2022/10/31 14:03:00;;;;;;;;;;;18.40;74.60;;;;;;5100508;28;19919;-83
2022/10/31 14:05:33;;;;;;;;;;;18.40;74.50;;;;;;5094100;28;19994;-83
2022/10/31 14:08:01;;;;;;;;;;;18.50;74.60;;;;;;5099004;28;19916;-83
2022/10/31 14:10:28;;;;;;;;;;;18.50;74.50;;;;;;5102499;28;20054;-82
2022/10/31 14:13:02;;;;;;;;;;;18.50;74.50;;;;;;5096944;28;19916;-83
2022/10/31 14:15:28;;;;;;;;;;;18.50;74.50;;;;;;5088732;28;19913;-84
2022/10/31 14:18:14;;;;;;;;;;;18.50;74.50;;;;;;5107024;28;20458;-83
2022/10/31 14:20:43;;;;;;;;;;;18.50;74.40;;;;;;5093253;28;19957;-83
2022/10/31 14:23:27;;;;;;;;;;;18.60;74.40;;;;;;5083748;28;19920;-84
2022/10/31 14:25:53;;;;;;;;;;;18.60;74.40;;;;;;5102202;28;19916;-84
2022/10/31 14:28:20;;;;;;;;;;;18.60;74.30;;;;;;5097332;28;19913;-83
2022/10/31 14:30:54;;;;;;;;;;;18.60;74.30;;;;;;5097034;28;19917;-83
2022/10/31 14:33:20;;;;;;;;;;;18.60;74.30;;;;;;5098928;28;19923;-83
2022/10/31 14:35:51;;;;;;;;;;;18.70;74.40;;;;;;5080056;28;20391;-83
2022/10/31 14:38:29;;;;;;;;;;;18.60;74.30;;;;;;5096620;28;19919;-83
2022/10/31 14:41:01;;;;;;;;;;;18.70;74.30;;;;;;5091698;28;19942;-82
2022/10/31 14:43:49;;;;;;;;;;;18.70;74.30;;;;;;5102620;27;19929;-83